createdAt,value
2022-10-20T00:01:24.306Z,99594.59
2022-10-20T00:03:52.680Z,99597.22
2022-10-20T00:06:21.202Z,99597.28
2022-10-20T00:08:48.786Z,99600.78
2022-10-20T00:11:18.661Z,99595.56
2022-10-20T00:13:47.420Z,99596.41
2022-10-20T00:16:14.561Z,99594.66
2022-10-20T00:18:42.172Z,99591.16
2022-10-20T00:21:21.442Z,99602.50
2022-10-20T00:23:48.999Z,99608.56
2022-10-20T00:26:24.530Z,99610.38
2022-10-20T00:28:52.273Z,99604.34
2022-10-20T00:31:21.480Z,99604.34
2022-10-20T00:33:48.784Z,99611.34
2022-10-20T00:36:17.979Z,99611.34
2022-10-20T00:38:45.249Z,99614.88
2022-10-20T00:41:14.651Z,99614.81
2022-10-20T00:43:55.618Z,99622.66
2022-10-20T00:46:32.542Z,99624.38
2022-10-20T00:49:06.479Z,99622.56
2022-10-20T00:51:33.976Z,99617.31
2022-10-20T00:54:08.939Z,99611.19
2022-10-20T00:56:38.775Z,99617.25
2022-10-20T00:59:06.453Z,99618.94
2022-10-20T01:01:33.604Z,99618.13
2022-10-20T01:04:01.335Z,99621.63
2022-10-20T01:06:28.257Z,99619.06
2022-10-20T01:08:55.475Z,99622.56
2022-10-20T01:11:45.947Z,99628.72
2022-10-20T01:14:52.322Z,99637.47
2022-10-20T01:18:01.562Z,99631.47
2022-10-20T01:20:28.834Z,99636.69
2022-10-20T01:23:09.819Z,99638.47
2022-10-20T01:25:56.991Z,99630.69
2022-10-20T01:28:40.168Z,99635.09
2022-10-20T01:31:38.487Z,99631.66
2022-10-20T01:34:24.049Z,99633.41
2022-10-20T01:36:59.284Z,99626.50
2022-10-20T01:39:34.801Z,99623.06
2022-10-20T01:42:07.637Z,99626.53
2022-10-20T01:44:36.857Z,99625.72
2022-10-20T01:47:08.387Z,99632.69
2022-10-20T01:49:35.425Z,99633.59
2022-10-20T01:52:02.647Z,99638.84
2022-10-20T01:54:30.785Z,99637.97
2022-10-20T01:57:03.606Z,99631.94
2022-10-20T01:59:41.334Z,99641.50
2022-10-20T02:02:11.404Z,99638.03
2022-10-20T02:05:02.976Z,99636.34
2022-10-20T02:07:32.968Z,99637.22
2022-10-20T02:10:13.022Z,99642.44
2022-10-20T02:12:44.118Z,99642.44
2022-10-20T02:15:14.957Z,99645.06
2022-10-20T02:17:44.715Z,99643.34
2022-10-20T02:20:11.767Z,99645.06
2022-10-20T02:22:40.451Z,99645.94
2022-10-20T02:25:11.606Z,99645.94
2022-10-20T02:27:42.508Z,99637.22
2022-10-20T02:30:13.659Z,99643.31
2022-10-20T02:32:42.822Z,99646.78
2022-10-20T02:35:23.156Z,99643.34
2022-10-20T02:37:50.635Z,99643.34
2022-10-20T02:43:06.094Z,99646.78
2022-10-20T02:45:33.054Z,99642.44
2022-10-20T02:47:59.788Z,99643.28
2022-10-20T02:50:26.790Z,99652.81
2022-10-20T02:52:53.642Z,99647.63
2022-10-20T02:55:20.662Z,99652.81
2022-10-20T02:57:47.454Z,99641.47
2022-10-20T03:00:14.631Z,99652.72
2022-10-20T03:02:41.369Z,99654.44
2022-10-20T03:05:08.697Z,99657.03
2022-10-20T03:07:35.752Z,99663.09
2022-10-20T03:10:03.739Z,99667.38
2022-10-20T03:12:32.227Z,99665.59
2022-10-20T03:14:59.429Z,99669.03
2022-10-20T03:17:26.162Z,99669.00
2022-10-20T03:19:53.128Z,99670.69
2022-10-20T03:22:19.942Z,99676.72
2022-10-20T03:24:46.901Z,99676.69
2022-10-20T03:27:14.320Z,99675.75
2022-10-20T03:29:41.346Z,99671.38
2022-10-20T03:32:08.141Z,99680.06
2022-10-20T03:34:35.152Z,99672.19
2022-10-20T03:37:02.427Z,99690.41
2022-10-20T03:39:29.406Z,99683.44
2022-10-20T03:41:57.874Z,99686.00
2022-10-20T03:44:24.968Z,99684.25
2022-10-20T03:46:51.743Z,99681.59
2022-10-20T03:49:18.786Z,99680.75
2022-10-20T03:51:45.555Z,99679.00
2022-10-20T03:54:12.530Z,99678.09
2022-10-20T03:56:39.326Z,99673.72
2022-10-20T03:59:06.291Z,99679.81
2022-10-20T04:01:34.938Z,99665.84
2022-10-20T04:04:02.224Z,99668.41
2022-10-20T04:06:29.153Z,99667.56
2022-10-20T04:08:56.228Z,99668.44
2022-10-20T04:11:24.142Z,99671.06
2022-10-20T04:13:51.725Z,99674.53
2022-10-20T04:16:18.622Z,99668.41
2022-10-20T04:18:45.590Z,99665.81
2022-10-20T04:21:12.424Z,99668.41
2022-10-20T04:23:39.367Z,99669.25
2022-10-20T04:26:10.984Z,99667.56
2022-10-20T04:28:38.353Z,99670.16
2022-10-20T04:31:06.133Z,99665.81
2022-10-20T04:33:33.334Z,99669.31
2022-10-20T04:36:08.074Z,99676.28
2022-10-20T04:38:35.533Z,99678.94
2022-10-20T04:41:04.635Z,99680.66
2022-10-20T04:43:32.655Z,99680.75
2022-10-20T04:46:07.249Z,99680.75
2022-10-20T04:48:37.222Z,99688.56
2022-10-20T04:51:09.396Z,99683.34
2022-10-20T04:53:36.943Z,99685.97
2022-10-20T04:56:05.726Z,99686.81
2022-10-20T04:58:33.603Z,99698.13
2022-10-20T05:01:05.435Z,99685.97
2022-10-20T05:03:33.065Z,99688.59
2022-10-20T05:06:24.658Z,99698.16
2022-10-20T05:08:54.167Z,99703.34
2022-10-20T05:11:23.151Z,99708.56
2022-10-20T05:13:50.167Z,99710.31
2022-10-20T05:16:20.037Z,99712.94
2022-10-20T05:18:48.515Z,99716.44
2022-10-20T05:21:23.346Z,99719.91
2022-10-20T05:23:55.790Z,99719.03
2022-10-20T05:26:22.600Z,99723.34
2022-10-20T05:28:51.385Z,99724.22
2022-10-20T05:31:21.224Z,99728.56
2022-10-20T05:33:50.958Z,99736.38
2022-10-20T05:36:21.587Z,99738.97
2022-10-20T05:38:50.911Z,99742.44
2022-10-20T05:41:20.459Z,99732.81
2022-10-20T05:43:52.620Z,99740.59
2022-10-20T05:46:20.422Z,99737.09
2022-10-20T05:48:47.860Z,99740.53
2022-10-20T05:51:17.856Z,99743.09
2022-10-20T05:53:45.391Z,99743.94
2022-10-20T05:56:15.429Z,99747.41
2022-10-20T05:58:43.668Z,99763.13
2022-10-20T06:01:21.221Z,99750.88
2022-10-20T06:03:50.070Z,99770.94
2022-10-20T06:06:17.723Z,99770.06
2022-10-20T06:08:44.877Z,99764.81
2022-10-20T06:11:14.227Z,99775.25
2022-10-20T06:13:41.157Z,99789.19
2022-10-20T06:16:13.803Z,99786.56
2022-10-20T06:18:43.851Z,99792.63
2022-10-20T06:21:13.878Z,99798.69
2022-10-20T06:23:40.966Z,99795.19
2022-10-20T06:26:13.601Z,99804.75
2022-10-20T06:28:41.418Z,99806.44
2022-10-20T06:31:21.604Z,99810.78
2022-10-20T06:33:49.292Z,99810.72
2022-10-20T06:36:17.224Z,99813.31
2022-10-20T06:38:44.939Z,99814.16
2022-10-20T06:41:15.242Z,99811.50
2022-10-20T06:43:43.537Z,99816.56
2022-10-20T06:46:16.662Z,99816.41
2022-10-20T06:48:44.496Z,99831.03
2022-10-20T06:51:16.519Z,99826.59
2022-10-20T06:53:46.589Z,99823.00
2022-10-20T06:56:16.526Z,99831.59
2022-10-20T06:58:45.304Z,99832.38
2022-10-20T07:01:14.967Z,99845.47
2022-10-20T07:03:43.372Z,99840.31
2022-10-20T07:06:14.434Z,99854.31
2022-10-20T07:08:42.021Z,99852.53
2022-10-20T07:11:18.397Z,99850.78
2022-10-20T07:13:46.375Z,99860.41
2022-10-20T07:16:15.461Z,99857.78
2022-10-20T07:18:45.447Z,99858.69
2022-10-20T07:21:17.638Z,99870.84
2022-10-20T07:23:45.628Z,99868.19
2022-10-20T07:26:19.560Z,99878.66
2022-10-20T07:28:54.672Z,99877.69
2022-10-20T07:31:23.940Z,99882.00
2022-10-20T07:34:13.400Z,99884.63
2022-10-20T07:36:40.203Z,99870.56
2022-10-20T07:39:07.096Z,99869.66
2022-10-20T07:41:34.805Z,99873.88
2022-10-20T07:44:01.971Z,99873.75
2022-10-20T07:46:28.754Z,99872.78
2022-10-20T07:49:02.761Z,99881.41
2022-10-20T07:51:38.450Z,99872.56
2022-10-20T07:54:07.668Z,99874.16
2022-10-20T07:56:40.070Z,99871.44
2022-10-20T07:59:08.568Z,99872.16
2022-10-20T08:01:36.147Z,99877.31
2022-10-20T08:04:03.991Z,99866.75
2022-10-20T08:06:30.863Z,99867.59
2022-10-20T08:08:57.973Z,99871.81
2022-10-20T08:11:24.813Z,99870.72
2022-10-20T08:13:52.515Z,99865.25
2022-10-20T08:21:47.462Z,99867.53
2022-10-20T08:24:14.475Z,99876.81
2022-10-20T08:26:41.388Z,99872.13
2022-10-20T08:29:09.334Z,99874.59
2022-10-20T08:31:36.223Z,99869.88
2022-10-20T08:34:03.305Z,99866.97
2022-10-20T08:36:30.220Z,99873.66
2022-10-20T08:39:03.607Z,99870.19
2022-10-20T08:42:02.738Z,99871.78
2022-10-20T08:44:31.916Z,99874.41
2022-10-20T08:47:01.312Z,99876.78
2022-10-20T08:49:32.281Z,99875.41
2022-10-20T08:51:59.333Z,99881.56
2022-10-20T08:54:26.420Z,99871.47
2022-10-20T08:56:53.631Z,99885.44
2022-10-20T08:59:35.192Z,99880.34
2022-10-20T09:02:03.883Z,99873.81
2022-10-20T09:07:30.037Z,99882.09
2022-10-20T09:10:07.675Z,99879.41
2022-10-20T09:12:34.887Z,99872.41
2022-10-20T09:15:02.127Z,99875.19
2022-10-20T09:17:29.167Z,99872.25
2022-10-20T09:19:59.303Z,99877.22
2022-10-20T09:22:32.141Z,99880.72
2022-10-20T09:25:03.522Z,99879.19
2022-10-20T09:27:39.885Z,99880.28
2022-10-20T09:30:30.071Z,99888.84
2022-10-20T09:32:56.939Z,99889.84
2022-10-20T09:35:28.719Z,99893.25
2022-10-20T09:38:03.243Z,99887.38
2022-10-20T09:40:31.021Z,99888.22
2022-10-20T09:43:15.394Z,99891.00
2022-10-20T09:46:06.745Z,99888.75
2022-10-20T09:48:38.240Z,99886.75
2022-10-20T09:54:04.931Z,99888.44
2022-10-20T09:56:35.217Z,99885.78
2022-10-20T09:59:05.950Z,99881.34
2022-10-20T10:01:33.128Z,99876.53
2022-10-20T10:04:02.155Z,99883.28
2022-10-20T10:06:32.347Z,99881.66
2022-10-20T10:09:02.090Z,99881.59
2022-10-20T10:11:34.339Z,99875.31
2022-10-20T10:14:02.365Z,99882.00
2022-10-20T10:16:40.918Z,99879.09
2022-10-20T10:19:08.177Z,99873.03
2022-10-20T10:21:53.524Z,99874.16
2022-10-20T10:24:42.321Z,99867.16
2022-10-20T10:27:19.475Z,99864.47
2022-10-20T10:29:46.713Z,99868.75
2022-10-20T10:32:19.289Z,99860.16
2022-10-20T10:35:16.957Z,99858.63
2022-10-20T10:37:45.024Z,99851.63
2022-10-20T10:40:27.010Z,99850.34
2022-10-20T10:42:59.925Z,99846.16
2022-10-20T10:45:29.591Z,99844.41
2022-10-20T10:48:22.108Z,99844.09
2022-10-20T10:51:00.947Z,99838.22
2022-10-20T10:53:45.486Z,99841.53
2022-10-20T10:56:39.700Z,99847.44
2022-10-20T10:59:35.016Z,99833.59
2022-10-20T11:02:25.623Z,99836.84
2022-10-20T11:05:11.329Z,99834.16
2022-10-20T11:07:51.240Z,99831.94
2022-10-20T11:10:33.277Z,99832.47
2022-10-20T11:13:03.789Z,99824.25
2022-10-20T11:15:41.860Z,99827.09
2022-10-20T11:18:17.466Z,99816.41
2022-10-20T11:20:47.060Z,99818.31
2022-10-20T11:23:51.392Z,99816.28
2022-10-20T11:26:39.091Z,99816.16
2022-10-20T11:29:12.615Z,99816.94
2022-10-20T11:31:48.421Z,99810.66
2022-10-20T11:34:15.158Z,99809.09
2022-10-20T11:36:47.859Z,99800.84
2022-10-20T11:39:24.162Z,99803.38
2022-10-20T11:41:58.536Z,99798.88
2022-10-20T11:44:38.163Z,99801.69
2022-10-20T11:47:12.683Z,99791.03
2022-10-20T11:49:40.815Z,99789.47
2022-10-20T11:52:26.340Z,99793.47
2022-10-20T11:55:27.355Z,99784.88
2022-10-20T11:58:18.434Z,99779.63
2022-10-20T12:00:57.629Z,99779.00
2022-10-20T12:03:45.738Z,99772.47
2022-10-20T12:06:41.698Z,99780.84
2022-10-20T12:12:02.419Z,99768.31
2022-10-20T12:14:46.455Z,99759.38
2022-10-20T12:17:30.198Z,99763.94
2022-10-20T12:20:21.804Z,99755.53
2022-10-20T12:22:50.472Z,99756.25
2022-10-20T12:25:25.322Z,99759.66
2022-10-20T12:28:20.756Z,99757.69
2022-10-20T12:31:07.198Z,99761.78
2022-10-20T12:33:59.248Z,99755.25
2022-10-20T12:36:36.550Z,99758.09
2022-10-20T12:39:12.351Z,99747.63
2022-10-20T12:41:55.436Z,99750.56
2022-10-20T12:44:23.606Z,99749.25
2022-10-20T12:46:58.125Z,99749.91
2022-10-20T12:49:31.254Z,99754.81
2022-10-20T12:52:00.294Z,99753.78
2022-10-20T12:54:40.548Z,99747.25
2022-10-20T12:57:41.787Z,99745.69
2022-10-20T13:00:32.938Z,99738.53
2022-10-20T13:03:00.367Z,99743.72
2022-10-20T13:05:43.529Z,99742.00
2022-10-20T13:08:19.817Z,99739.41
2022-10-20T13:10:47.726Z,99745.28
2022-10-20T13:13:20.558Z,99738.94
2022-10-20T13:15:53.606Z,99740.63
2022-10-20T13:18:31.708Z,99737.25
2022-10-20T13:21:20.857Z,99738.97
2022-10-20T13:23:53.682Z,99734.47
2022-10-20T13:26:43.335Z,99738.63
2022-10-20T13:29:20.284Z,99735.03
2022-10-20T13:32:00.128Z,99733.06
2022-10-20T13:34:41.509Z,99741.16
2022-10-20T13:37:19.123Z,99737.66
2022-10-20T13:39:52.179Z,99732.50
2022-10-20T13:42:40.011Z,99729.00
2022-10-20T13:45:07.219Z,99732.88
2022-10-20T13:47:42.630Z,99731.66
2022-10-20T13:52:54.829Z,99732.09
2022-10-20T13:55:28.887Z,99725.63
2022-10-20T13:58:08.839Z,99731.13
2022-10-20T14:00:36.308Z,99734.66
2022-10-20T14:03:15.552Z,99733.53
2022-10-20T14:05:42.556Z,99730.50
2022-10-20T14:08:17.831Z,99722.25
2022-10-20T14:11:08.523Z,99725.91
2022-10-20T14:13:36.417Z,99730.59
2022-10-20T14:16:16.556Z,99727.06
2022-10-20T14:18:43.423Z,99727.44
2022-10-20T14:21:18.704Z,99720.91
2022-10-20T14:23:49.260Z,99729.81
2022-10-20T14:26:20.304Z,99736.06
2022-10-20T14:28:50.528Z,99742.75
2022-10-20T14:31:22.027Z,99735.38
2022-10-20T14:33:51.611Z,99730.25
2022-10-20T14:36:22.065Z,99732.97
2022-10-20T14:38:54.946Z,99730.28
2022-10-20T14:41:31.753Z,99730.16
2022-10-20T14:44:05.915Z,99728.25
2022-10-20T14:46:39.178Z,99729.03
2022-10-20T14:49:25.296Z,99724.53
2022-10-20T14:52:00.001Z,99729.78
2022-10-20T14:54:39.174Z,99726.00
2022-10-20T14:57:09.292Z,99725.69
2022-10-20T14:59:49.679Z,99717.38
2022-10-20T15:02:21.272Z,99724.06
2022-10-20T15:04:52.015Z,99715.75
2022-10-20T15:07:32.191Z,99717.09
2022-10-20T15:10:08.262Z,99709.69
2022-10-20T15:12:38.252Z,99708.34
2022-10-20T15:15:05.406Z,99710.75
2022-10-20T15:17:39.922Z,99717.53
2022-10-20T15:20:40.074Z,99712.84
2022-10-20T15:23:20.177Z,99706.41
2022-10-20T15:25:50.060Z,99708.69
2022-10-20T15:28:34.946Z,99714.69
2022-10-20T15:31:04.321Z,99710.88
2022-10-20T15:33:32.103Z,99714.72
2022-10-20T15:36:00.675Z,99715.00
2022-10-20T15:38:27.778Z,99704.81
2022-10-20T15:40:54.622Z,99706.91
2022-10-20T15:43:21.748Z,99704.59
2022-10-20T15:45:55.082Z,99711.97
2022-10-20T15:48:26.024Z,99707.03
2022-10-20T15:50:59.051Z,99706.50
2022-10-20T15:53:26.121Z,99710.22
2022-10-20T15:55:52.969Z,99707.84
2022-10-20T15:58:20.109Z,99708.97
2022-10-20T16:00:46.926Z,99709.13
2022-10-20T16:03:18.498Z,99703.16
2022-10-20T16:05:46.797Z,99701.50
2022-10-20T16:10:43.722Z,99696.41
2022-10-20T16:13:11.414Z,99695.72
2022-10-20T16:15:38.152Z,99698.44
2022-10-20T16:18:07.352Z,99698.50
2022-10-20T16:20:36.578Z,99697.72
2022-10-20T16:23:03.675Z,99699.50
2022-10-20T16:25:30.492Z,99703.09
2022-10-20T16:27:57.501Z,99712.69
2022-10-20T16:30:24.316Z,99707.50
2022-10-20T16:32:51.288Z,99706.72
2022-10-20T16:35:18.065Z,99702.38
2022-10-20T16:37:45.018Z,99713.69
2022-10-20T16:40:12.229Z,99711.13
2022-10-20T16:42:39.420Z,99712.00
2022-10-20T16:45:06.591Z,99709.41
2022-10-20T16:47:33.759Z,99716.38
2022-10-20T16:50:00.712Z,99725.94
2022-10-20T16:52:27.754Z,99717.25
2022-10-20T16:54:54.504Z,99720.72
2022-10-20T16:57:21.648Z,99719.88
2022-10-20T16:59:51.023Z,99727.69
2022-10-20T17:02:19.611Z,99724.22
2022-10-20T17:04:50.090Z,99726.84
2022-10-20T17:07:17.782Z,99722.50
2022-10-20T17:09:45.703Z,99724.22
2022-10-20T17:12:12.689Z,99728.56
2022-10-20T17:14:40.813Z,99725.97
2022-10-20T17:17:07.932Z,99720.72
2022-10-20T17:19:34.965Z,99724.19
2022-10-20T17:22:02.019Z,99725.06
2022-10-20T17:24:29.105Z,99724.19
2022-10-20T17:26:56.090Z,99719.84
2022-10-20T17:29:25.990Z,99721.56
2022-10-20T17:31:53.236Z,99720.69
2022-10-20T17:34:20.271Z,99718.09
2022-10-20T17:36:47.212Z,99715.50
2022-10-20T17:39:16.509Z,99721.53
2022-10-20T17:41:43.699Z,99714.56
2022-10-20T17:44:10.526Z,99710.22
2022-10-20T17:46:38.677Z,99705.88
2022-10-20T17:49:06.033Z,99712.81
2022-10-20T17:51:34.758Z,99699.78
2022-10-20T17:54:02.671Z,99713.63
2022-10-20T17:56:37.316Z,99703.22
2022-10-20T17:59:06.573Z,99702.31
2022-10-20T18:01:37.007Z,99697.13
2022-10-20T18:04:06.816Z,99697.13
2022-10-20T18:06:35.319Z,99702.31
2022-10-20T18:09:06.460Z,99699.72
2022-10-20T18:11:35.522Z,99704.94
2022-10-20T18:14:03.118Z,99694.50
2022-10-20T18:16:32.452Z,99691.91
2022-10-20T18:18:59.783Z,99697.91
2022-10-20T18:21:28.599Z,99702.22
2022-10-20T18:24:02.401Z,99699.59
2022-10-20T18:26:30.903Z,99696.13
2022-10-20T18:28:59.549Z,99696.97
2022-10-20T18:31:30.255Z,99695.25
2022-10-20T18:34:04.203Z,99696.09
2022-10-20T18:36:36.235Z,99699.56
2022-10-20T18:39:06.069Z,99691.75
2022-10-20T18:41:38.325Z,99685.66
2022-10-20T18:44:10.265Z,99689.13
2022-10-20T18:46:37.890Z,99690.84
2022-10-20T18:49:07.278Z,99695.16
2022-10-20T18:51:36.214Z,99689.94
2022-10-20T18:54:04.977Z,99692.53
2022-10-20T18:56:32.080Z,99689.03
2022-10-20T18:59:01.373Z,99692.47
2022-10-20T19:01:31.338Z,99687.28
2022-10-20T19:03:59.081Z,99692.50
2022-10-20T19:06:29.407Z,99692.47
2022-10-20T19:08:59.126Z,99692.44
2022-10-20T19:11:28.378Z,99683.81
2022-10-20T19:13:56.449Z,99688.09
2022-10-20T19:16:26.698Z,99695.88
2022-10-20T19:18:55.861Z,99699.31
2022-10-20T19:21:24.211Z,99699.31
2022-10-20T19:23:53.979Z,99689.78
2022-10-20T19:26:23.799Z,99697.56
2022-10-20T19:28:58.680Z,99694.09
2022-10-20T19:31:28.807Z,99692.34
2022-10-20T19:34:14.401Z,99697.56
2022-10-20T19:36:42.693Z,99688.94
2022-10-20T19:39:11.324Z,99690.69
2022-10-20T19:41:38.378Z,99686.41
2022-10-20T19:44:05.739Z,99689.00
2022-10-20T19:46:32.972Z,99686.44
2022-10-20T19:48:59.758Z,99689.88
2022-10-20T19:51:26.766Z,99687.31
2022-10-20T19:53:53.544Z,99685.53
2022-10-20T19:56:20.586Z,99692.44
2022-10-20T19:58:48.535Z,99692.38
2022-10-20T20:01:16.620Z,99691.44
2022-10-20T20:03:44.393Z,99695.69
2022-10-20T20:06:17.952Z,99696.50
2022-10-20T20:08:47.707Z,99696.47
2022-10-20T20:11:27.480Z,99700.78
2022-10-20T20:13:57.460Z,99700.75
2022-10-20T20:16:25.177Z,99705.06
2022-10-20T20:18:52.091Z,99699.84
2022-10-20T20:21:19.124Z,99705.00
2022-10-20T20:24:01.621Z,99702.31
2022-10-20T20:26:30.894Z,99703.13
2022-10-20T20:28:58.641Z,99691.88
2022-10-20T20:31:28.061Z,99702.22
2022-10-20T20:33:56.887Z,99691.84
2022-10-20T20:36:26.244Z,99692.72
2022-10-20T20:38:56.671Z,99687.59
2022-10-20T20:41:26.782Z,99694.53
2022-10-20T20:43:54.470Z,99696.28
2022-10-20T20:46:23.853Z,99690.25
2022-10-20T20:48:50.735Z,99691.97
2022-10-20T20:51:17.962Z,99686.75
2022-10-20T20:53:44.753Z,99692.78
2022-10-20T20:56:14.351Z,99688.44
2022-10-20T20:58:54.751Z,99684.09
2022-10-20T21:01:27.787Z,99682.34
2022-10-20T21:04:01.700Z,99682.34
2022-10-20T21:06:38.062Z,99684.09
2022-10-20T21:09:16.425Z,99684.94
2022-10-20T21:11:43.417Z,99683.19
2022-10-20T21:14:10.273Z,99683.16
2022-10-20T21:16:38.177Z,99692.63
2022-10-20T21:19:08.646Z,99686.53
2022-10-20T21:21:47.139Z,99684.69
2022-10-20T21:24:13.985Z,99687.31
2022-10-20T21:26:41.145Z,99682.97
2022-10-20T21:29:07.941Z,99685.56
2022-10-20T21:31:35.338Z,99675.19
2022-10-20T21:34:04.639Z,99676.06
2022-10-20T21:36:34.801Z,99677.81
2022-10-20T21:39:04.298Z,99670.91
2022-10-20T21:41:33.409Z,99672.63
2022-10-20T21:44:01.643Z,99672.59
2022-10-20T21:46:31.530Z,99666.50
2022-10-20T21:49:20.032Z,99669.13
2022-10-20T21:51:50.060Z,99671.72
2022-10-20T21:56:52.322Z,99662.19
2022-10-20T21:59:30.240Z,99651.81
2022-10-20T22:01:59.749Z,99653.53
2022-10-20T22:04:29.141Z,99650.94
2022-10-20T22:06:56.905Z,99643.16
2022-10-20T22:09:24.054Z,99640.56
2022-10-20T22:11:55.412Z,99641.41
2022-10-20T22:14:22.805Z,99635.31
2022-10-20T22:16:49.803Z,99630.91
2022-10-20T22:19:20.109Z,99627.44
2022-10-20T22:21:49.353Z,99620.50
2022-10-20T22:24:18.631Z,99617.88
2022-10-20T22:26:46.100Z,99625.66
2022-10-20T22:29:13.303Z,99619.56
2022-10-20T22:31:41.170Z,99623.81
2022-10-20T22:34:09.141Z,99624.66
2022-10-20T22:36:36.301Z,99623.72
2022-10-20T22:39:03.840Z,99619.38
2022-10-20T22:41:30.882Z,99621.91
2022-10-20T22:43:58.138Z,99614.97
2022-10-20T22:46:25.204Z,99615.78
2022-10-20T22:48:52.055Z,99607.09
2022-10-20T22:51:19.296Z,99608.81
2022-10-20T22:53:46.099Z,99606.09
2022-10-20T22:56:17.577Z,99604.31
2022-10-20T22:58:44.818Z,99606.03
2022-10-20T23:01:15.289Z,99599.97
2022-10-20T23:03:42.702Z,99590.50
2022-10-20T23:06:15.370Z,99592.25
2022-10-20T23:08:44.937Z,99591.38
2022-10-20T23:11:13.088Z,99592.28
2022-10-20T23:13:39.913Z,99586.25
2022-10-20T23:16:07.339Z,99586.25
2022-10-20T23:18:34.373Z,99590.53
2022-10-20T23:21:01.577Z,99587.03
2022-10-20T23:23:28.396Z,99585.31
2022-10-20T23:25:56.844Z,99577.59
2022-10-20T23:28:25.348Z,99584.50
2022-10-20T23:30:52.306Z,99585.34
2022-10-20T23:33:19.137Z,99584.44
2022-10-20T23:35:47.245Z,99585.31
2022-10-20T23:38:14.045Z,99581.91
2022-10-20T23:40:41.034Z,99574.97
2022-10-20T23:43:08.088Z,99572.31
2022-10-20T23:45:37.000Z,99570.56
2022-10-20T23:48:04.845Z,99568.84
2022-10-20T23:50:31.838Z,99568.78
2022-10-20T23:52:58.622Z,99568.75
2022-10-20T23:55:25.587Z,99559.28
2022-10-20T23:57:52.367Z,99552.34
